sensor_id;sensor_type;location;lat;lon;timestamp;pressure;altitude;pressure_sealevel;temperature;humidity
47913;BME280;33676;51.006;17.180;2023-05-01T00:01:39;100776.41;;;4.30;71.31
47913;BME280;33676;51.006;17.180;2023-05-01T00:04:07;100777.55;;;4.24;71.70
47913;BME280;33676;51.006;17.180;2023-05-01T00:06:36;100773.32;;;4.18;71.48
47913;BME280;33676;51.006;17.180;2023-05-01T00:09:04;100774.02;;;4.14;71.78
47913;BME280;33676;51.006;17.180;2023-05-01T00:11:34;100767.00;;;4.09;71.93
47913;BME280;33676;51.006;17.180;2023-05-01T00:14:04;100767.23;;;4.04;72.17
47913;BME280;33676;51.006;17.180;2023-05-01T00:16:33;100764.67;;;3.98;72.35
47913;BME280;33676;51.006;17.180;2023-05-01T00:19:03;100761.91;;;3.94;72.30
47913;BME280;33676;51.006;17.180;2023-05-01T00:21:32;100761.20;;;3.91;72.61
47913;BME280;33676;51.006;17.180;2023-05-01T00:24:00;100758.94;;;3.87;72.56
47913;BME280;33676;51.006;17.180;2023-05-01T00:26:29;100755.58;;;3.84;72.70
47913;BME280;33676;51.006;17.180;2023-05-01T00:28:58;100751.61;;;3.81;73.00
47913;BME280;33676;51.006;17.180;2023-05-01T00:31:27;100754.23;;;3.76;73.25
47913;BME280;33676;51.006;17.180;2023-05-01T00:33:55;100750.80;;;3.71;73.40
47913;BME280;33676;51.006;17.180;2023-05-01T00:36:24;100748.36;;;3.67;73.34
47913;BME280;33676;51.006;17.180;2023-05-01T00:38:53;100746.61;;;3.64;73.54
47913;BME280;33676;51.006;17.180;2023-05-01T00:41:21;100743.83;;;3.61;73.70
47913;BME280;33676;51.006;17.180;2023-05-01T00:43:50;100744.96;;;3.58;73.69
47913;BME280;33676;51.006;17.180;2023-05-01T00:46:18;100746.09;;;3.56;73.80
47913;BME280;33676;51.006;17.180;2023-05-01T00:48:47;100742.55;;;3.54;73.78
47913;BME280;33676;51.006;17.180;2023-05-01T00:51:15;100738.15;;;3.51;74.13
47913;BME280;33676;51.006;17.180;2023-05-01T00:53:44;100737.20;;;3.49;74.19
47913;BME280;33676;51.006;17.180;2023-05-01T00:56:13;100742.16;;;3.47;74.28
47913;BME280;33676;51.006;17.180;2023-05-01T00:58:46;100743.66;;;3.44;74.44
47913;BME280;33676;51.006;17.180;2023-05-01T01:01:16;100743.61;;;3.41;74.40
47913;BME280;33676;51.006;17.180;2023-05-01T01:03:46;100740.91;;;3.35;74.56
47913;BME280;33676;51.006;17.180;2023-05-01T01:06:51;100741.05;;;3.31;74.74
47913;BME280;33676;51.006;17.180;2023-05-01T01:12:45;100742.75;;;3.23;74.91
47913;BME280;33676;51.006;17.180;2023-05-01T01:15:33;100743.30;;;3.18;74.94
47913;BME280;33676;51.006;17.180;2023-05-01T01:18:41;100741.58;;;3.14;75.06
47913;BME280;33676;51.006;17.180;2023-05-01T01:21:34;100740.77;;;3.09;75.24
47913;BME280;33676;51.006;17.180;2023-05-01T01:27:45;100732.35;;;3.03;75.54
47913;BME280;33676;51.006;17.180;2023-05-01T01:34:10;100730.56;;;2.96;75.60
47913;BME280;33676;51.006;17.180;2023-05-01T01:39:55;100725.94;;;2.86;75.99
47913;BME280;33676;51.006;17.180;2023-05-01T01:42:44;100725.21;;;2.83;75.92
47913;BME280;33676;51.006;17.180;2023-05-01T01:45:32;100732.02;;;2.81;76.10
47913;BME280;33676;51.006;17.180;2023-05-01T01:48:04;100729.02;;;2.78;76.68
47913;BME280;33676;51.006;17.180;2023-05-01T01:50:35;100729.74;;;2.77;76.84
47913;BME280;33676;51.006;17.180;2023-05-01T01:53:05;100727.27;;;2.74;76.60
47913;BME280;33676;51.006;17.180;2023-05-01T01:55:37;100728.12;;;2.70;76.29
47913;BME280;33676;51.006;17.180;2023-05-01T01:58:08;100729.45;;;2.62;76.27
47913;BME280;33676;51.006;17.180;2023-05-01T02:00:39;100726.46;;;2.55;76.23
47913;BME280;33676;51.006;17.180;2023-05-01T02:03:10;100728.02;;;2.50;76.18
47913;BME280;33676;51.006;17.180;2023-05-01T02:05:41;100727.10;;;2.47;76.64
47913;BME280;33676;51.006;17.180;2023-05-01T02:08:12;100727.47;;;2.47;76.70
47913;BME280;33676;51.006;17.180;2023-05-01T02:10:43;100723.27;;;2.44;76.97
47913;BME280;33676;51.006;17.180;2023-05-01T02:13:13;100717.52;;;2.40;76.95
47913;BME280;33676;51.006;17.180;2023-05-01T02:15:44;100719.16;;;2.38;77.06
47913;BME280;33676;51.006;17.180;2023-05-01T02:18:13;100712.88;;;2.35;77.28
47913;BME280;33676;51.006;17.180;2023-05-01T02:20:42;100710.89;;;2.33;77.19
47913;BME280;33676;51.006;17.180;2023-05-01T02:23:12;100708.36;;;2.31;77.15
47913;BME280;33676;51.006;17.180;2023-05-01T02:25:41;100711.05;;;2.29;77.42
47913;BME280;33676;51.006;17.180;2023-05-01T02:28:12;100708.08;;;2.25;77.46
47913;BME280;33676;51.006;17.180;2023-05-01T02:30:41;100707.64;;;2.23;77.42
47913;BME280;33676;51.006;17.180;2023-05-01T02:33:09;100705.69;;;2.20;77.53
47913;BME280;33676;51.006;17.180;2023-05-01T02:35:43;100708.36;;;2.18;77.89
47913;BME280;33676;51.006;17.180;2023-05-01T02:38:17;100707.83;;;2.13;77.94
47913;BME280;33676;51.006;17.180;2023-05-01T02:40:48;100705.73;;;2.09;77.90
47913;BME280;33676;51.006;17.180;2023-05-01T02:43:20;100705.36;;;2.06;77.80
47913;BME280;33676;51.006;17.180;2023-05-01T02:45:51;100701.13;;;2.04;77.94
47913;BME280;33676;51.006;17.180;2023-05-01T02:48:27;100699.66;;;2.02;78.11
47913;BME280;33676;51.006;17.180;2023-05-01T02:50:55;100694.75;;;1.99;77.99
47913;BME280;33676;51.006;17.180;2023-05-01T02:53:24;100694.64;;;1.97;78.39
47913;BME280;33676;51.006;17.180;2023-05-01T02:55:52;100693.99;;;1.96;78.45
47913;BME280;33676;51.006;17.180;2023-05-01T02:58:21;100693.35;;;1.94;78.77
47913;BME280;33676;51.006;17.180;2023-05-01T03:00:50;100690.27;;;1.94;78.51
47913;BME280;33676;51.006;17.180;2023-05-01T03:03:19;100693.59;;;1.93;78.91
47913;BME280;33676;51.006;17.180;2023-05-01T03:05:47;100690.86;;;1.92;78.73
47913;BME280;33676;51.006;17.180;2023-05-01T03:08:16;100687.63;;;1.91;78.80
47913;BME280;33676;51.006;17.180;2023-05-01T03:10:44;100688.14;;;1.91;78.83
47913;BME280;33676;51.006;17.180;2023-05-01T03:13:13;100691.71;;;1.87;78.73
47913;BME280;33676;51.006;17.180;2023-05-01T03:15:41;100691.31;;;1.84;78.55
47913;BME280;33676;51.006;17.180;2023-05-01T03:18:10;100690.39;;;1.81;78.72
47913;BME280;33676;51.006;17.180;2023-05-01T03:20:38;100690.11;;;1.79;78.89
47913;BME280;33676;51.006;17.180;2023-05-01T03:23:07;100684.69;;;1.76;79.08
47913;BME280;33676;51.006;17.180;2023-05-01T03:25:36;100683.40;;;1.74;79.11
47913;BME280;33676;51.006;17.180;2023-05-01T03:28:05;100684.16;;;1.72;79.18
47913;BME280;33676;51.006;17.180;2023-05-01T03:30:33;100681.42;;;1.71;79.48
47913;BME280;33676;51.006;17.180;2023-05-01T03:33:02;100678.38;;;1.70;79.58
47913;BME280;33676;51.006;17.180;2023-05-01T03:35:31;100675.96;;;1.70;79.52
47913;BME280;33676;51.006;17.180;2023-05-01T03:37:59;100676.34;;;1.69;79.73
47913;BME280;33676;51.006;17.180;2023-05-01T03:40:27;100679.63;;;1.68;79.76
47913;BME280;33676;51.006;17.180;2023-05-01T03:42:56;100684.77;;;1.69;80.04
47913;BME280;33676;51.006;17.180;2023-05-01T03:45:24;100683.04;;;1.70;80.06
47913;BME280;33676;51.006;17.180;2023-05-01T03:47:53;100678.73;;;1.70;79.91
47913;BME280;33676;51.006;17.180;2023-05-01T03:50:22;100675.80;;;1.69;79.99
47913;BME280;33676;51.006;17.180;2023-05-01T03:52:50;100678.70;;;1.70;80.22
47913;BME280;33676;51.006;17.180;2023-05-01T03:55:18;100677.39;;;1.73;80.46
47913;BME280;33676;51.006;17.180;2023-05-01T03:57:47;100678.34;;;1.76;80.64
47913;BME280;33676;51.006;17.180;2023-05-01T04:00:15;100677.02;;;1.78;80.74
47913;BME280;33676;51.006;17.180;2023-05-01T04:02:44;100678.48;;;1.81;80.81
47913;BME280;33676;51.006;17.180;2023-05-01T04:05:13;100678.66;;;1.86;80.98
47913;BME280;33676;51.006;17.180;2023-05-01T04:07:42;100676.45;;;1.90;81.17
47913;BME280;33676;51.006;17.180;2023-05-01T04:10:11;100675.74;;;1.95;81.61
47913;BME280;33676;51.006;17.180;2023-05-01T04:12:39;100673.85;;;2.00;81.65
47913;BME280;33676;51.006;17.180;2023-05-01T04:15:11;100673.34;;;2.05;81.65
47913;BME280;33676;51.006;17.180;2023-05-01T04:17:42;100674.33;;;2.10;81.84
47913;BME280;33676;51.006;17.180;2023-05-01T04:20:11;100671.05;;;2.15;81.83
47913;BME280;33676;51.006;17.180;2023-05-01T04:22:39;100668.27;;;2.20;81.99
47913;BME280;33676;51.006;17.180;2023-05-01T04:25:08;100667.52;;;2.26;82.13
47913;BME280;33676;51.006;17.180;2023-05-01T04:27:37;100668.30;;;2.33;82.26
47913;BME280;33676;51.006;17.180;2023-05-01T04:30:06;100669.60;;;2.40;82.49
47913;BME280;33676;51.006;17.180;2023-05-01T04:32:35;100671.88;;;2.48;82.52
47913;BME280;33676;51.006;17.180;2023-05-01T04:35:04;100671.76;;;2.55;82.76
47913;BME280;33676;51.006;17.180;2023-05-01T04:37:33;100669.00;;;2.63;82.89
47913;BME280;33676;51.006;17.180;2023-05-01T04:40:03;100671.24;;;2.72;83.13
47913;BME280;33676;51.006;17.180;2023-05-01T04:42:32;100671.09;;;2.81;83.15
47913;BME280;33676;51.006;17.180;2023-05-01T04:45:00;100671.57;;;2.90;83.32
47913;BME280;33676;51.006;17.180;2023-05-01T04:47:31;100670.01;;;2.99;83.49
47913;BME280;33676;51.006;17.180;2023-05-01T04:50:00;100668.04;;;3.09;83.72
47913;BME280;33676;51.006;17.180;2023-05-01T04:52:28;100669.65;;;3.20;83.85
47913;BME280;33676;51.006;17.180;2023-05-01T04:54:56;100667.13;;;3.30;84.18
47913;BME280;33676;51.006;17.180;2023-05-01T04:57:25;100670.85;;;3.41;84.15
47913;BME280;33676;51.006;17.180;2023-05-01T04:59:53;100665.54;;;3.52;84.30
47913;BME280;33676;51.006;17.180;2023-05-01T05:02:22;100664.70;;;3.63;84.44
47913;BME280;33676;51.006;17.180;2023-05-01T05:04:50;100667.58;;;3.77;84.51
47913;BME280;33676;51.006;17.180;2023-05-01T05:07:21;100668.98;;;3.88;84.71
47913;BME280;33676;51.006;17.180;2023-05-01T05:09:50;100667.19;;;4.01;84.79
47913;BME280;33676;51.006;17.180;2023-05-01T05:12:18;100664.91;;;4.13;84.87
47913;BME280;33676;51.006;17.180;2023-05-01T05:14:47;100667.59;;;4.26;84.72
47913;BME280;33676;51.006;17.180;2023-05-01T05:17:15;100665.65;;;4.38;84.88
47913;BME280;33676;51.006;17.180;2023-05-01T05:19:44;100663.16;;;4.51;84.74
47913;BME280;33676;51.006;17.180;2023-05-01T05:22:12;100663.13;;;4.62;84.61
47913;BME280;33676;51.006;17.180;2023-05-01T05:24:40;100661.16;;;4.74;84.60
47913;BME280;33676;51.006;17.180;2023-05-01T05:27:09;100663.54;;;4.86;84.35
47913;BME280;33676;51.006;17.180;2023-05-01T05:29:37;100661.09;;;4.97;84.19
47913;BME280;33676;51.006;17.180;2023-05-01T05:32:06;100660.27;;;5.11;84.40
47913;BME280;33676;51.006;17.180;2023-05-01T05:34:34;100656.83;;;5.23;84.25
47913;BME280;33676;51.006;17.180;2023-05-01T05:37:03;100651.50;;;5.37;84.65
47913;BME280;33676;51.006;17.180;2023-05-01T05:39:31;100648.59;;;5.49;84.83
47913;BME280;33676;51.006;17.180;2023-05-01T05:42:00;100651.14;;;5.64;84.98
47913;BME280;33676;51.006;17.180;2023-05-01T05:44:29;100650.92;;;5.78;84.53
47913;BME280;33676;51.006;17.180;2023-05-01T05:46:58;100652.15;;;5.91;84.62
47913;BME280;33676;51.006;17.180;2023-05-01T05:49:27;100650.39;;;6.05;84.62
47913;BME280;33676;51.006;17.180;2023-05-01T05:51:55;100648.48;;;6.18;84.41
47913;BME280;33676;51.006;17.180;2023-05-01T05:54:24;100644.33;;;6.33;84.41
47913;BME280;33676;51.006;17.180;2023-05-01T05:56:52;100645.82;;;6.47;84.61
47913;BME280;33676;51.006;17.180;2023-05-01T05:59:21;100646.41;;;6.61;84.40
47913;BME280;33676;51.006;17.180;2023-05-01T06:01:49;100645.89;;;6.77;84.29
47913;BME280;33676;51.006;17.180;2023-05-01T06:04:17;100642.33;;;6.90;84.23
47913;BME280;33676;51.006;17.180;2023-05-01T06:06:47;100640.64;;;7.05;84.04
47913;BME280;33676;51.006;17.180;2023-05-01T06:09:15;100644.14;;;7.20;83.58
47913;BME280;33676;51.006;17.180;2023-05-01T06:11:46;100644.98;;;7.34;83.89
47913;BME280;33676;51.006;17.180;2023-05-01T06:14:15;100644.11;;;7.49;83.54
47913;BME280;33676;51.006;17.180;2023-05-01T06:16:46;100647.68;;;7.65;83.21
47913;BME280;33676;51.006;17.180;2023-05-01T06:19:14;100647.08;;;7.81;82.93
47913;BME280;33676;51.006;17.180;2023-05-01T06:21:43;100643.40;;;7.98;82.90
47913;BME280;33676;51.006;17.180;2023-05-01T06:24:11;100644.44;;;8.15;82.58
47913;BME280;33676;51.006;17.180;2023-05-01T06:26:40;100643.69;;;8.30;82.00
47913;BME280;33676;51.006;17.180;2023-05-01T06:29:08;100639.24;;;8.45;81.71
47913;BME280;33676;51.006;17.180;2023-05-01T06:31:37;100638.73;;;8.62;81.74
47913;BME280;33676;51.006;17.180;2023-05-01T06:34:05;100638.34;;;8.79;81.24
47913;BME280;33676;51.006;17.180;2023-05-01T06:36:34;100638.08;;;8.96;80.92
47913;BME280;33676;51.006;17.180;2023-05-01T06:39:03;100635.02;;;9.13;80.61
47913;BME280;33676;51.006;17.180;2023-05-01T06:41:32;100635.27;;;9.30;80.11
47913;BME280;33676;51.006;17.180;2023-05-01T06:44:01;100633.17;;;9.48;79.53
47913;BME280;33676;51.006;17.180;2023-05-01T06:46:29;100629.61;;;9.62;78.69
47913;BME280;33676;51.006;17.180;2023-05-01T06:48:58;100625.74;;;9.75;78.26
47913;BME280;33676;51.006;17.180;2023-05-01T06:51:27;100631.54;;;9.89;77.78
47913;BME280;33676;51.006;17.180;2023-05-01T06:53:55;100626.19;;;10.03;77.56
47913;BME280;33676;51.006;17.180;2023-05-01T06:56:23;100623.86;;;10.19;77.50
47913;BME280;33676;51.006;17.180;2023-05-01T06:58:52;100619.80;;;10.35;76.92
47913;BME280;33676;51.006;17.180;2023-05-01T07:01:20;100621.27;;;10.50;76.76
47913;BME280;33676;51.006;17.180;2023-05-01T07:03:49;100618.26;;;10.65;76.24
47913;BME280;33676;51.006;17.180;2023-05-01T07:06:17;100614.65;;;10.79;75.79
47913;BME280;33676;51.006;17.180;2023-05-01T07:08:46;100607.95;;;10.91;75.15
47913;BME280;33676;51.006;17.180;2023-05-01T07:11:15;100610.96;;;11.05;74.75
47913;BME280;33676;51.006;17.180;2023-05-01T07:13:43;100614.54;;;11.17;74.63
47913;BME280;33676;51.006;17.180;2023-05-01T07:16:12;100608.26;;;11.31;74.24
47913;BME280;33676;51.006;17.180;2023-05-01T07:18:40;100609.02;;;11.44;73.99
47913;BME280;33676;51.006;17.180;2023-05-01T07:21:09;100604.80;;;11.58;73.65
47913;BME280;33676;51.006;17.180;2023-05-01T07:23:39;100604.64;;;11.69;73.01
47913;BME280;33676;51.006;17.180;2023-05-01T07:26:07;100599.52;;;11.81;72.88
47913;BME280;33676;51.006;17.180;2023-05-01T07:28:35;100601.34;;;11.94;72.24
47913;BME280;33676;51.006;17.180;2023-05-01T07:31:04;100602.10;;;12.06;72.05
47913;BME280;33676;51.006;17.180;2023-05-01T07:33:32;100602.84;;;12.19;71.73
47913;BME280;33676;51.006;17.180;2023-05-01T07:36:01;100601.86;;;12.29;71.52
47913;BME280;33676;51.006;17.180;2023-05-01T07:38:30;100597.54;;;12.41;71.28
47913;BME280;33676;51.006;17.180;2023-05-01T07:40:59;100595.98;;;12.53;71.07
47913;BME280;33676;51.006;17.180;2023-05-01T07:43:27;100590.67;;;12.65;70.57
47913;BME280;33676;51.006;17.180;2023-05-01T07:45:58;100591.48;;;12.74;69.85
47913;BME280;33676;51.006;17.180;2023-05-01T07:48:28;100592.98;;;12.84;69.48
47913;BME280;33676;51.006;17.180;2023-05-01T07:51:00;100593.73;;;12.94;69.71
47913;BME280;33676;51.006;17.180;2023-05-01T07:53:29;100591.52;;;13.05;69.43
47913;BME280;33676;51.006;17.180;2023-05-01T07:56:06;100588.13;;;13.19;69.18
47913;BME280;33676;51.006;17.180;2023-05-01T07:58:35;100587.30;;;13.31;68.49
47913;BME280;33676;51.006;17.180;2023-05-01T08:01:04;100589.88;;;13.40;67.82
47913;BME280;33676;51.006;17.180;2023-05-01T08:03:33;100586.30;;;13.49;67.15
47913;BME280;33676;51.006;17.180;2023-05-01T08:06:02;100580.90;;;13.56;66.50
47913;BME280;33676;51.006;17.180;2023-05-01T08:08:31;100585.21;;;13.64;66.58
47913;BME280;33676;51.006;17.180;2023-05-01T08:10:59;100586.41;;;13.76;66.61
47913;BME280;33676;51.006;17.180;2023-05-01T08:13:27;100589.27;;;13.87;65.96
47913;BME280;33676;51.006;17.180;2023-05-01T08:16:00;100585.31;;;13.99;65.51
47913;BME280;33676;51.006;17.180;2023-05-01T08:18:30;100585.45;;;14.09;64.73
47913;BME280;33676;51.006;17.180;2023-05-01T08:20:58;100585.96;;;14.19;64.54
47913;BME280;33676;51.006;17.180;2023-05-01T08:23:27;100579.18;;;14.28;63.83
47913;BME280;33676;51.006;17.180;2023-05-01T08:25:55;100575.14;;;14.34;63.48
47913;BME280;33676;51.006;17.180;2023-05-01T08:28:24;100576.45;;;14.41;62.99
47913;BME280;33676;51.006;17.180;2023-05-01T08:30:52;100568.67;;;14.49;62.88
47913;BME280;33676;51.006;17.180;2023-05-01T08:33:21;100570.24;;;14.63;62.50
47913;BME280;33676;51.006;17.180;2023-05-01T08:35:49;100563.50;;;14.75;62.16
47913;BME280;33676;51.006;17.180;2023-05-01T08:38:40;100562.10;;;14.89;62.03
47913;BME280;33676;51.006;17.180;2023-05-01T08:41:09;100561.47;;;14.96;61.90
47913;BME280;33676;51.006;17.180;2023-05-01T08:43:42;100555.39;;;15.06;61.51
47913;BME280;33676;51.006;17.180;2023-05-01T08:46:11;100561.25;;;15.13;61.53
47913;BME280;33676;51.006;17.180;2023-05-01T08:48:43;100563.80;;;15.20;60.96
47913;BME280;33676;51.006;17.180;2023-05-01T08:51:13;100560.40;;;15.26;60.74
47913;BME280;33676;51.006;17.180;2023-05-01T08:53:45;100557.76;;;15.37;61.16
47913;BME280;33676;51.006;17.180;2023-05-01T08:56:19;100557.14;;;15.53;61.09
47913;BME280;33676;51.006;17.180;2023-05-01T08:58:49;100556.05;;;15.67;61.02
47913;BME280;33676;51.006;17.180;2023-05-01T09:01:19;100548.77;;;15.78;60.74
47913;BME280;33676;51.006;17.180;2023-05-01T09:03:51;100548.11;;;15.96;60.65
47913;BME280;33676;51.006;17.180;2023-05-01T09:06:20;100539.38;;;16.15;60.55
47913;BME280;33676;51.006;17.180;2023-05-01T09:08:49;100531.52;;;16.36;60.70
47913;BME280;33676;51.006;17.180;2023-05-01T09:11:21;100529.48;;;16.60;60.87
47913;BME280;33676;51.006;17.180;2023-05-01T09:13:51;100530.98;;;16.84;60.60
47913;BME280;33676;51.006;17.180;2023-05-01T09:16:20;100520.92;;;17.01;60.07
47913;BME280;33676;51.006;17.180;2023-05-01T09:18:49;100520.06;;;17.20;59.86
47913;BME280;33676;51.006;17.180;2023-05-01T09:21:17;100516.02;;;17.32;59.31
47913;BME280;33676;51.006;17.180;2023-05-01T09:23:50;100513.94;;;17.42;59.05
47913;BME280;33676;51.006;17.180;2023-05-01T09:26:19;100511.51;;;17.51;59.16
47913;BME280;33676;51.006;17.180;2023-05-01T09:28:49;100515.02;;;17.74;59.71
47913;BME280;33676;51.006;17.180;2023-05-01T09:31:31;100513.59;;;17.98;59.84
47913;BME280;33676;51.006;17.180;2023-05-01T09:34:02;100507.61;;;18.25;59.71
47913;BME280;33676;51.006;17.180;2023-05-01T09:36:33;100504.02;;;18.52;59.50
47913;BME280;33676;51.006;17.180;2023-05-01T09:39:02;100505.01;;;18.79;59.06
47913;BME280;33676;51.006;17.180;2023-05-01T09:41:31;100503.02;;;19.05;58.87
47913;BME280;33676;51.006;17.180;2023-05-01T09:44:00;100500.89;;;19.29;58.67
47913;BME280;33676;51.006;17.180;2023-05-01T09:46:40;100498.39;;;19.52;58.31
47913;BME280;33676;51.006;17.180;2023-05-01T09:49:09;100504.02;;;19.72;57.79
47913;BME280;33676;51.006;17.180;2023-05-01T09:51:37;100492.66;;;19.89;57.40
47913;BME280;33676;51.006;17.180;2023-05-01T09:54:19;100489.14;;;20.08;57.13
47913;BME280;33676;51.006;17.180;2023-05-01T09:56:48;100485.05;;;20.26;56.81
47913;BME280;33676;51.006;17.180;2023-05-01T09:59:19;100484.62;;;20.47;56.61
47913;BME280;33676;51.006;17.180;2023-05-01T10:01:48;100486.02;;;20.71;56.36
47913;BME280;33676;51.006;17.180;2023-05-01T10:04:32;100483.15;;;20.95;55.74
47913;BME280;33676;51.006;17.180;2023-05-01T10:07:12;100481.36;;;21.22;55.27
47913;BME280;33676;51.006;17.180;2023-05-01T10:09:41;100474.02;;;21.46;54.69
47913;BME280;33676;51.006;17.180;2023-05-01T10:14:54;100463.73;;;21.98;54.07
47913;BME280;33676;51.006;17.180;2023-05-01T10:17:23;100457.66;;;22.24;53.47
47913;BME280;33676;51.006;17.180;2023-05-01T10:19:51;100460.16;;;22.44;52.89
47913;BME280;33676;51.006;17.180;2023-05-01T10:22:20;100462.40;;;22.65;52.70
47913;BME280;33676;51.006;17.180;2023-05-01T10:27:18;100452.33;;;23.02;51.98
47913;BME280;33676;51.006;17.180;2023-05-01T10:29:52;100450.21;;;23.20;51.79
47913;BME280;33676;51.006;17.180;2023-05-01T10:32:20;100451.84;;;23.42;51.25
47913;BME280;33676;51.006;17.180;2023-05-01T10:35:00;100446.70;;;23.60;51.04
47913;BME280;33676;51.006;17.180;2023-05-01T10:37:46;100438.64;;;23.86;51.10
47913;BME280;33676;51.006;17.180;2023-05-01T10:40:47;100436.77;;;24.17;50.51
47913;BME280;33676;51.006;17.180;2023-05-01T10:43:18;100434.61;;;24.49;50.34
47913;BME280;33676;51.006;17.180;2023-05-01T10:45:48;100431.09;;;24.84;50.55
47913;BME280;33676;51.006;17.180;2023-05-01T10:48:52;100426.98;;;25.22;50.34
47913;BME280;33676;51.006;17.180;2023-05-01T10:51:25;100423.66;;;25.69;50.15
47913;BME280;33676;51.006;17.180;2023-05-01T10:56:41;100413.36;;;26.12;48.50
47913;BME280;33676;51.006;17.180;2023-05-01T10:59:10;100411.56;;;26.06;47.75
47913;BME280;33676;51.006;17.180;2023-05-01T11:01:42;100411.92;;;26.08;47.36
47913;BME280;33676;51.006;17.180;2023-05-01T11:19:53;100389.98;;;27.36;45.58
47913;BME280;33676;51.006;17.180;2023-05-01T11:22:21;100389.04;;;27.55;45.30
47913;BME280;33676;51.006;17.180;2023-05-01T11:24:51;100382.53;;;27.77;45.28
47913;BME280;33676;51.006;17.180;2023-05-01T11:27:20;100374.43;;;28.08;45.68
47913;BME280;33676;51.006;17.180;2023-05-01T11:29:49;100368.35;;;28.43;45.60
47913;BME280;33676;51.006;17.180;2023-05-01T11:32:24;100363.73;;;28.70;45.02
47913;BME280;33676;51.006;17.180;2023-05-01T11:34:55;100365.63;;;28.90;44.28
47913;BME280;33676;51.006;17.180;2023-05-01T11:37:43;100360.23;;;29.07;43.84
47913;BME280;33676;51.006;17.180;2023-05-01T11:40:20;100357.35;;;29.29;43.85
47913;BME280;33676;51.006;17.180;2023-05-01T11:42:52;100348.83;;;29.60;43.78
47913;BME280;33676;51.006;17.180;2023-05-01T11:45:28;100342.39;;;29.96;44.05
47913;BME280;33676;51.006;17.180;2023-05-01T11:47:58;100337.97;;;30.23;43.76
47913;BME280;33676;51.006;17.180;2023-05-01T11:50:37;100332.63;;;30.39;43.19
47913;BME280;33676;51.006;17.180;2023-05-01T11:53:11;100326.07;;;30.55;43.02
47913;BME280;33676;51.006;17.180;2023-05-01T11:55:43;100319.98;;;30.73;42.53
47913;BME280;33676;51.006;17.180;2023-05-01T11:58:12;100316.76;;;30.84;42.50
47913;BME280;33676;51.006;17.180;2023-05-01T12:00:42;100311.67;;;30.98;42.47
47913;BME280;33676;51.006;17.180;2023-05-01T12:03:12;100310.13;;;31.12;42.32
47913;BME280;33676;51.006;17.180;2023-05-01T12:05:43;100306.95;;;31.24;41.81
47913;BME280;33676;51.006;17.180;2023-05-01T12:08:18;100305.85;;;31.28;41.22
47913;BME280;33676;51.006;17.180;2023-05-01T12:10:53;100301.71;;;31.31;40.81
47913;BME280;33676;51.006;17.180;2023-05-01T12:13:24;100295.48;;;31.43;41.05
47913;BME280;33676;51.006;17.180;2023-05-01T12:15:56;100289.38;;;31.67;41.26
47913;BME280;33676;51.006;17.180;2023-05-01T12:18:24;100287.80;;;31.93;41.19
47913;BME280;33676;51.006;17.180;2023-05-01T12:20:54;100290.34;;;32.18;40.84
47913;BME280;33676;51.006;17.180;2023-05-01T12:23:35;100285.70;;;32.41;40.80
47913;BME280;33676;51.006;17.180;2023-05-01T12:26:21;100282.33;;;32.60;40.61
47913;BME280;33676;51.006;17.180;2023-05-01T12:29:00;100279.21;;;32.79;40.40
47913;BME280;33676;51.006;17.180;2023-05-01T12:31:29;100278.05;;;32.87;40.31
47913;BME280;33676;51.006;17.180;2023-05-01T12:34:00;100272.64;;;32.90;40.39
47913;BME280;33676;51.006;17.180;2023-05-01T12:36:33;100272.05;;;32.94;39.71
47913;BME280;33676;51.006;17.180;2023-05-01T12:39:09;100265.21;;;32.98;39.76
47913;BME280;33676;51.006;17.180;2023-05-01T12:41:44;100266.33;;;33.03;39.72
47913;BME280;33676;51.006;17.180;2023-05-01T12:44:21;100260.83;;;33.23;39.93
47913;BME280;33676;51.006;17.180;2023-05-01T12:47:01;100262.02;;;33.53;40.39
47913;BME280;33676;51.006;17.180;2023-05-01T12:49:30;100247.91;;;33.91;40.34
47913;BME280;33676;51.006;17.180;2023-05-01T12:52:00;100244.98;;;34.23;40.45
47913;BME280;33676;51.006;17.180;2023-05-01T12:54:38;100239.94;;;34.51;40.24
47913;BME280;33676;51.006;17.180;2023-05-01T12:57:12;100238.57;;;34.79;40.16
47913;BME280;33676;51.006;17.180;2023-05-01T12:59:45;100239.88;;;35.09;40.06
47913;BME280;33676;51.006;17.180;2023-05-01T13:02:16;100237.06;;;35.33;39.92
47913;BME280;33676;51.006;17.180;2023-05-01T13:04:46;100230.55;;;35.55;39.74
47913;BME280;33676;51.006;17.180;2023-05-01T13:07:17;100221.90;;;35.71;39.29
47913;BME280;33676;51.006;17.180;2023-05-01T13:09:59;100219.02;;;35.82;39.38
47913;BME280;33676;51.006;17.180;2023-05-01T13:12:29;100210.70;;;35.95;39.10
47913;BME280;33676;51.006;17.180;2023-05-01T13:14:58;100211.69;;;36.04;38.90
47913;BME280;33676;51.006;17.180;2023-05-01T13:17:30;100206.55;;;36.05;38.81
47913;BME280;33676;51.006;17.180;2023-05-01T13:20:03;100202.84;;;36.11;38.67
47913;BME280;33676;51.006;17.180;2023-05-01T13:22:34;100200.05;;;36.26;38.64
47913;BME280;33676;51.006;17.180;2023-05-01T13:25:14;100194.42;;;36.47;38.54
47913;BME280;33676;51.006;17.180;2023-05-01T13:27:49;100192.98;;;36.79;38.72
47913;BME280;33676;51.006;17.180;2023-05-01T13:30:20;100186.25;;;37.08;38.64
47913;BME280;33676;51.006;17.180;2023-05-01T13:32:57;100179.36;;;37.45;38.89
47913;BME280;33676;51.006;17.180;2023-05-01T13:35:26;100182.06;;;37.79;38.54
47913;BME280;33676;51.006;17.180;2023-05-01T13:37:55;100182.38;;;37.97;38.16
47913;BME280;33676;51.006;17.180;2023-05-01T13:40:26;100178.80;;;38.08;38.02
47913;BME280;33676;51.006;17.180;2023-05-01T13:42:55;100179.62;;;38.15;37.86